createdAt,value
2022-09-14T00:01:37.149Z,2.08
2022-09-14T00:04:08.237Z,2.25
2022-09-14T00:06:36.845Z,2.38
2022-09-14T00:09:06.994Z,2.28
2022-09-14T00:11:37.685Z,1.95
2022-09-14T00:14:07.671Z,2.10
2022-09-14T00:16:38.194Z,2.28
2022-09-14T00:19:08.827Z,2.10
2022-09-14T00:21:38.446Z,2.40
2022-09-14T00:24:08.532Z,2.00
2022-09-14T00:26:38.498Z,2.30
2022-09-14T00:29:07.407Z,2.33
2022-09-14T00:31:37.382Z,2.25
2022-09-14T00:34:06.862Z,2.40
2022-09-14T00:36:39.688Z,2.22
2022-09-14T00:39:08.892Z,2.22
2022-09-14T00:41:40.666Z,2.00
2022-09-14T00:44:46.976Z,2.10
2022-09-14T00:47:17.215Z,1.92
2022-09-14T00:49:45.934Z,1.95
2022-09-14T00:52:19.177Z,2.35
2022-09-14T00:54:49.864Z,2.30
2022-09-14T00:57:20.777Z,2.58
2022-09-14T00:59:51.502Z,2.30
2022-09-14T01:02:21.656Z,2.45
2022-09-14T01:04:50.637Z,2.63
2022-09-14T01:07:31.740Z,2.45
2022-09-14T01:10:07.173Z,2.42
2022-09-14T01:12:44.722Z,2.40
2022-09-14T01:15:21.876Z,2.40
2022-09-14T01:17:58.406Z,2.60
2022-09-14T01:20:31.165Z,2.72
2022-09-14T01:23:10.142Z,2.50
2022-09-14T01:26:08.838Z,2.45
2022-09-14T01:28:43.772Z,2.78
2022-09-14T01:31:18.870Z,2.58
2022-09-14T01:33:52.952Z,2.35
2022-09-14T01:36:22.735Z,2.60
2022-09-14T01:38:55.173Z,2.45
2022-09-14T01:41:29.386Z,2.67
2022-09-14T01:44:04.488Z,2.83
2022-09-14T01:46:39.228Z,2.53
2022-09-14T01:49:13.308Z,3.40
2022-09-14T01:51:47.195Z,3.00
2022-09-14T01:54:20.815Z,2.92
2022-09-14T01:56:52.975Z,3.03
2022-09-14T01:59:26.137Z,3.13
2022-09-14T02:02:01.607Z,2.65
2022-09-14T02:04:40.577Z,2.83
2022-09-14T02:07:09.079Z,3.10
2022-09-14T02:09:37.521Z,2.80
2022-09-14T02:12:06.158Z,2.97
2022-09-14T02:14:36.073Z,2.72
2022-09-14T02:17:04.655Z,3.20
2022-09-14T02:19:38.477Z,2.53
2022-09-14T02:22:06.726Z,2.90
2022-09-14T02:24:35.107Z,2.60
2022-09-14T02:27:04.707Z,3.00
2022-09-14T02:29:33.044Z,2.80
2022-09-14T02:32:11.711Z,2.38
2022-09-14T02:34:52.521Z,3.03
2022-09-14T02:37:26.313Z,2.88
2022-09-14T02:40:02.799Z,2.85
2022-09-14T02:42:45.111Z,3.00
2022-09-14T02:45:23.582Z,2.58
2022-09-14T02:48:02.888Z,2.67
2022-09-14T02:50:38.114Z,2.40
2022-09-14T02:53:14.067Z,3.20
2022-09-14T02:55:46.325Z,3.55
2022-09-14T02:58:15.683Z,3.25
2022-09-14T03:00:46.179Z,3.00
2022-09-14T03:03:18.052Z,3.05
2022-09-14T03:05:46.600Z,3.15
2022-09-14T03:08:15.178Z,2.78
2022-09-14T03:10:44.943Z,2.50
2022-09-14T03:13:13.238Z,2.72
2022-09-14T03:15:42.316Z,2.60
2022-09-14T03:18:14.295Z,2.95
2022-09-14T03:20:44.721Z,3.15
2022-09-14T03:23:13.941Z,2.95
2022-09-14T03:25:43.987Z,3.03
2022-09-14T03:28:13.683Z,3.25
2022-09-14T03:30:41.861Z,3.05
2022-09-14T03:33:10.509Z,2.58
2022-09-14T03:35:38.661Z,2.85
2022-09-14T03:38:08.618Z,3.25
2022-09-14T03:40:36.988Z,3.08
2022-09-14T03:43:05.132Z,3.08
2022-09-14T03:45:33.340Z,2.67
2022-09-14T03:48:01.475Z,3.15
2022-09-14T03:50:29.669Z,2.88
2022-09-14T03:52:58.170Z,2.92
2022-09-14T03:55:27.947Z,3.67
2022-09-14T03:57:57.018Z,3.00
2022-09-14T04:00:25.217Z,3.28
2022-09-14T04:02:53.671Z,2.88
2022-09-14T04:05:22.080Z,2.72
2022-09-14T04:07:50.436Z,3.40
2022-09-14T04:10:19.110Z,3.53
2022-09-14T04:12:49.142Z,3.00
2022-09-14T04:15:17.522Z,3.10
2022-09-14T04:17:45.806Z,2.75
2022-09-14T04:20:14.025Z,3.17
2022-09-14T04:22:42.247Z,2.70
2022-09-14T04:25:10.706Z,3.05
2022-09-14T04:27:39.247Z,2.80
2022-09-14T04:30:09.797Z,2.75
2022-09-14T04:32:38.002Z,2.95
2022-09-14T04:35:06.736Z,3.00
2022-09-14T04:37:35.176Z,3.17
2022-09-14T04:40:04.001Z,3.33
2022-09-14T04:42:32.268Z,3.40
2022-09-14T04:45:00.520Z,2.88
2022-09-14T04:47:31.350Z,3.17
2022-09-14T04:49:59.480Z,3.10
2022-09-14T04:52:27.847Z,2.95
2022-09-14T04:54:56.204Z,2.95
2022-09-14T04:57:24.569Z,3.17
2022-09-14T04:59:52.877Z,3.45
2022-09-14T05:02:21.241Z,3.38
2022-09-14T05:04:51.143Z,2.85
2022-09-14T05:07:19.450Z,3.42
2022-09-14T05:09:47.771Z,3.30
2022-09-14T05:12:15.904Z,3.65
2022-09-14T05:14:44.478Z,3.15
2022-09-14T05:17:12.716Z,3.15
2022-09-14T05:19:40.912Z,2.75
2022-09-14T05:22:10.496Z,3.17
2022-09-14T05:24:38.978Z,3.25
2022-09-14T05:27:07.201Z,3.10
2022-09-14T05:29:35.467Z,3.08
2022-09-14T05:32:04.559Z,2.60
2022-09-14T05:34:32.675Z,3.10
2022-09-14T05:37:00.869Z,3.03
2022-09-14T05:39:30.703Z,3.47
2022-09-14T05:42:00.238Z,3.08
2022-09-14T05:44:28.427Z,3.38
2022-09-14T05:46:56.579Z,3.35
2022-09-14T05:49:25.527Z,3.20
2022-09-14T05:51:54.036Z,3.25
2022-09-14T05:54:22.306Z,3.13
2022-09-14T05:56:51.830Z,3.53
2022-09-14T05:59:20.065Z,3.40
2022-09-14T06:01:48.347Z,3.42
2022-09-14T06:04:16.867Z,2.97
2022-09-14T06:07:01.410Z,3.10
2022-09-14T06:09:33.470Z,2.80
2022-09-14T06:12:03.321Z,3.33
2022-09-14T06:14:31.607Z,3.30
2022-09-14T06:16:59.794Z,3.28
2022-09-14T06:19:28.322Z,3.70
2022-09-14T06:21:56.487Z,3.85
2022-09-14T06:24:24.646Z,3.83
2022-09-14T06:26:53.213Z,3.65
2022-09-14T06:29:23.218Z,3.63
2022-09-14T06:31:51.370Z,3.80
2022-09-14T06:34:19.588Z,3.90
2022-09-14T06:36:48.339Z,4.32
2022-09-14T06:39:16.575Z,3.63
2022-09-14T06:41:44.935Z,3.70
2022-09-14T06:44:13.132Z,3.90
2022-09-14T06:46:45.751Z,3.53
2022-09-14T06:49:20.863Z,4.00
2022-09-14T06:51:49.084Z,4.28
2022-09-14T06:54:18.745Z,4.68
2022-09-14T06:56:47.826Z,3.92
2022-09-14T06:59:18.184Z,3.78
2022-09-14T07:01:49.828Z,4.10
2022-09-14T07:04:18.948Z,4.35
2022-09-14T07:06:49.853Z,4.38
2022-09-14T07:09:19.501Z,5.13
2022-09-14T07:11:48.185Z,4.00
2022-09-14T07:14:16.874Z,4.20
2022-09-14T07:16:45.077Z,3.88
2022-09-14T07:19:15.924Z,4.30
2022-09-14T07:21:44.331Z,3.55
2022-09-14T07:24:14.979Z,4.72
2022-09-14T07:26:44.203Z,3.80
2022-09-14T07:29:14.769Z,4.03
2022-09-14T07:31:45.411Z,3.92
2022-09-14T07:34:15.316Z,3.42
2022-09-14T07:36:44.948Z,3.03
2022-09-14T07:39:15.314Z,3.15
2022-09-14T07:41:44.621Z,2.92
2022-09-14T07:44:15.978Z,4.60
2022-09-14T07:46:45.876Z,3.45
2022-09-14T07:49:16.148Z,2.92
2022-09-14T07:51:44.793Z,3.28
2022-09-14T07:54:15.317Z,2.92
2022-09-14T07:56:43.982Z,3.10
2022-09-14T08:02:01.238Z,3.20
2022-09-14T08:04:30.984Z,2.97
2022-09-14T08:06:59.488Z,3.28
2022-09-14T08:09:27.868Z,3.10
2022-09-14T08:11:56.267Z,2.97
2022-09-14T08:14:24.975Z,3.47
2022-09-14T08:16:53.302Z,3.40
2022-09-14T08:19:21.680Z,3.38
2022-09-14T08:21:51.440Z,3.05
2022-09-14T08:24:21.446Z,3.55
2022-09-14T08:26:50.349Z,3.38
2022-09-14T08:29:20.439Z,3.97
2022-09-14T08:31:51.817Z,3.63
2022-09-14T08:34:20.891Z,3.75
2022-09-14T08:36:50.558Z,3.10
2022-09-14T08:39:19.436Z,3.35
2022-09-14T08:41:54.697Z,3.55
2022-09-14T08:44:28.279Z,3.28
2022-09-14T08:47:00.998Z,3.08
2022-09-14T08:49:40.237Z,3.15
2022-09-14T08:52:18.813Z,3.78
2022-09-14T08:54:51.454Z,3.08
2022-09-14T08:57:23.841Z,3.20
2022-09-14T09:00:02.148Z,3.75
2022-09-14T09:02:51.345Z,3.28
2022-09-14T09:05:30.238Z,3.40
2022-09-14T09:08:08.187Z,3.00
2022-09-14T09:10:39.992Z,2.90
2022-09-14T09:13:13.501Z,3.28
2022-09-14T09:15:47.261Z,3.35
2022-09-14T09:18:23.663Z,3.33
2022-09-14T09:20:53.806Z,3.28
2022-09-14T09:23:25.286Z,3.35
2022-09-14T09:26:00.109Z,2.58
2022-09-14T09:28:29.918Z,2.90
2022-09-14T09:31:05.138Z,2.92
2022-09-14T09:33:34.451Z,2.90
2022-09-14T09:36:03.078Z,2.67
2022-09-14T09:38:32.765Z,2.67
2022-09-14T09:41:07.774Z,2.97
2022-09-14T09:43:49.385Z,2.67
2022-09-14T09:46:19.117Z,2.70
2022-09-14T09:48:48.611Z,2.80
2022-09-14T09:51:23.837Z,2.75
2022-09-14T09:53:56.707Z,2.42
2022-09-14T09:56:27.875Z,2.65
2022-09-14T09:58:56.677Z,2.40
2022-09-14T10:01:29.795Z,2.13
2022-09-14T10:04:07.623Z,2.50
2022-09-14T10:06:43.979Z,2.90
2022-09-14T10:09:19.717Z,2.40
2022-09-14T10:11:49.250Z,2.47
2022-09-14T10:14:27.442Z,2.17
2022-09-14T10:17:06.467Z,2.13
2022-09-14T10:19:35.540Z,2.67
2022-09-14T10:22:17.190Z,2.42
2022-09-14T10:24:57.447Z,2.67
2022-09-14T10:27:39.795Z,2.28
2022-09-14T10:30:14.458Z,2.30
2022-09-14T10:32:47.127Z,2.53
2022-09-14T10:35:17.645Z,2.53
2022-09-14T10:38:02.770Z,2.47
2022-09-14T10:40:38.506Z,2.80
2022-09-14T10:43:15.601Z,2.28
2022-09-14T10:45:50.700Z,1.98
2022-09-14T10:48:40.416Z,2.65
2022-09-14T10:51:32.715Z,2.47
2022-09-14T10:54:08.553Z,2.00
2022-09-14T10:56:51.875Z,2.15
2022-09-14T10:59:32.206Z,2.20
2022-09-14T11:02:30.457Z,2.33
2022-09-14T11:05:12.186Z,2.45
2022-09-14T11:07:51.070Z,2.13
2022-09-14T11:10:29.606Z,2.33
2022-09-14T11:13:28.097Z,2.58
2022-09-14T11:16:06.113Z,2.40
2022-09-14T11:18:45.593Z,2.50
2022-09-14T11:21:22.279Z,2.10
2022-09-14T11:23:54.938Z,2.70
2022-09-14T11:26:31.585Z,2.83
2022-09-14T11:29:10.518Z,2.42
2022-09-14T11:31:55.281Z,2.53
2022-09-14T11:34:31.957Z,2.08
2022-09-14T11:37:05.393Z,2.20
2022-09-14T11:39:37.744Z,2.00
2022-09-14T11:42:11.074Z,2.70
2022-09-14T11:44:42.548Z,2.40
2022-09-14T11:47:14.847Z,2.28
2022-09-14T11:49:55.410Z,2.30
2022-09-14T11:52:25.688Z,2.20
2022-09-14T11:54:55.021Z,1.88
2022-09-14T11:57:27.337Z,1.90
2022-09-14T11:59:58.838Z,2.30
2022-09-14T12:03:01.525Z,2.28
2022-09-14T12:05:37.369Z,1.80
2022-09-14T12:08:48.293Z,2.03
2022-09-14T12:11:32.490Z,2.15
2022-09-14T12:14:31.927Z,1.95
2022-09-14T12:17:38.928Z,2.65
2022-09-14T12:20:42.208Z,2.33
2022-09-14T12:23:27.947Z,2.20
2022-09-14T12:26:39.093Z,1.77
2022-09-14T12:29:24.169Z,2.03
2022-09-14T12:32:27.842Z,1.63
2022-09-14T12:35:33.582Z,1.98
2022-09-14T12:38:22.404Z,2.30
2022-09-14T12:40:50.669Z,1.75
2022-09-14T12:43:53.766Z,2.15
2022-09-14T12:46:41.042Z,1.90
2022-09-14T12:49:31.493Z,1.75
2022-09-14T12:52:06.584Z,1.95
2022-09-14T12:54:52.346Z,1.85
2022-09-14T13:00:12.884Z,2.00
2022-09-14T13:03:24.052Z,1.70
2022-09-14T13:05:53.850Z,2.10
2022-09-14T13:08:26.023Z,1.67
2022-09-14T13:10:54.835Z,2.10
2022-09-14T13:13:27.114Z,1.90
2022-09-14T13:15:57.894Z,1.98
2022-09-14T13:18:34.678Z,1.98
2022-09-14T13:21:18.628Z,2.20
2022-09-14T13:23:47.293Z,2.08
2022-09-14T13:26:20.834Z,1.83
2022-09-14T13:28:52.245Z,2.00
2022-09-14T13:31:26.874Z,2.70
2022-09-14T13:33:56.874Z,2.00
2022-09-14T13:36:28.860Z,2.45
2022-09-14T13:39:01.785Z,2.08
2022-09-14T13:41:32.041Z,2.00
2022-09-14T13:44:01.992Z,2.20
2022-09-14T13:46:30.539Z,1.73
2022-09-14T13:48:59.067Z,2.10
2022-09-14T13:51:30.330Z,1.50
2022-09-14T13:54:00.206Z,2.20
2022-09-14T13:56:31.531Z,1.85
2022-09-14T13:59:19.331Z,1.67
2022-09-14T14:02:00.531Z,2.28
2022-09-14T14:04:34.240Z,2.40
2022-09-14T14:07:16.651Z,2.08
2022-09-14T14:09:50.881Z,1.90
2022-09-14T14:12:25.315Z,1.55
2022-09-14T14:14:58.649Z,1.73
2022-09-14T14:17:34.537Z,2.05
2022-09-14T14:20:30.638Z,2.20
2022-09-14T14:23:03.110Z,2.22
2022-09-14T14:25:34.035Z,2.30
2022-09-14T14:28:04.427Z,1.77
2022-09-14T14:30:37.759Z,2.00
2022-09-14T14:33:06.970Z,2.10
2022-09-14T14:35:35.249Z,1.85
2022-09-14T14:38:05.015Z,2.17
2022-09-14T14:40:35.079Z,2.13
2022-09-14T14:43:04.309Z,2.20
2022-09-14T14:45:36.363Z,2.42
2022-09-14T14:48:05.402Z,2.03
2022-09-14T15:25:18.995Z,1.92
2022-09-14T15:27:47.726Z,1.40
2022-09-14T15:30:17.544Z,2.03
2022-09-14T15:32:45.686Z,2.45
2022-09-14T15:35:15.591Z,2.15
2022-09-14T15:37:43.953Z,2.30
2022-09-14T15:40:12.946Z,2.05
2022-09-14T15:42:41.169Z,1.77
2022-09-14T15:45:10.192Z,1.65
2022-09-14T15:47:43.016Z,1.75
2022-09-14T15:50:12.287Z,1.85
2022-09-14T15:52:41.287Z,1.77
2022-09-14T15:55:11.497Z,2.00
2022-09-14T15:57:40.345Z,1.80
2022-09-14T16:00:12.631Z,2.05
2022-09-14T16:02:42.475Z,1.85
2022-09-14T16:05:13.123Z,2.05
2022-09-14T16:07:42.268Z,2.13
2022-09-14T16:10:11.229Z,2.28
2022-09-14T16:12:39.400Z,1.98
2022-09-14T16:15:09.697Z,2.17
2022-09-14T16:17:37.929Z,1.63
2022-09-14T16:20:10.199Z,3.20
2022-09-14T16:22:38.437Z,2.15
2022-09-14T16:25:07.187Z,1.70
2022-09-14T16:27:35.686Z,1.80
2022-09-14T16:30:04.376Z,2.13
2022-09-14T16:32:32.537Z,1.85
2022-09-14T16:35:04.640Z,1.80
2022-09-14T16:37:36.998Z,1.90
2022-09-14T16:40:05.802Z,2.45
2022-09-14T16:42:33.944Z,2.00
2022-09-14T16:45:02.171Z,1.90
2022-09-14T16:47:31.060Z,1.90
2022-09-14T16:49:59.542Z,1.95
2022-09-14T16:52:28.754Z,2.13
2022-09-14T16:54:58.654Z,2.10
2022-09-14T16:57:29.401Z,1.73
2022-09-14T16:59:57.757Z,2.40
2022-09-14T17:02:25.977Z,1.80
2022-09-14T17:04:54.785Z,2.10
2022-09-14T17:07:23.909Z,1.75
2022-09-14T17:09:52.054Z,2.05
2022-09-14T17:12:21.768Z,2.30
2022-09-14T17:14:50.011Z,2.22
2022-09-14T17:17:18.196Z,2.65
2022-09-14T17:19:46.503Z,2.10
2022-09-14T17:22:14.767Z,1.77
2022-09-14T17:24:42.996Z,2.13
2022-09-14T17:27:11.195Z,1.77
2022-09-14T17:29:41.054Z,2.00
2022-09-14T17:32:14.147Z,2.13
2022-09-14T17:34:43.340Z,2.00
2022-09-14T17:37:11.623Z,1.73
2022-09-14T17:39:39.916Z,1.83
2022-09-14T17:42:09.551Z,1.80
2022-09-14T17:44:37.700Z,2.00
2022-09-14T17:47:07.719Z,2.13
2022-09-14T17:49:36.005Z,2.08
2022-09-14T17:52:04.141Z,2.33
2022-09-14T17:54:32.419Z,2.08
2022-09-14T17:57:00.615Z,1.85
2022-09-14T17:59:29.079Z,2.20
2022-09-14T18:01:57.853Z,1.80
2022-09-14T18:04:28.299Z,1.70
2022-09-14T18:06:57.075Z,1.70
2022-09-14T18:09:25.658Z,1.85
2022-09-14T18:11:56.778Z,1.75
2022-09-14T18:14:26.131Z,1.77
2022-09-14T18:16:54.630Z,1.80
2022-09-14T18:19:23.495Z,1.70
2022-09-14T18:21:53.404Z,1.75
2022-09-14T18:24:22.489Z,1.75
2022-09-14T18:26:51.286Z,2.05
2022-09-14T18:29:23.626Z,1.73
2022-09-14T18:31:53.504Z,1.88
2022-09-14T18:34:23.719Z,2.00
2022-09-14T18:36:54.082Z,2.00
2022-09-14T18:39:22.898Z,2.10
2022-09-14T18:41:54.138Z,2.13
2022-09-14T18:44:23.020Z,1.92
2022-09-14T18:46:52.147Z,2.08
2022-09-14T18:49:21.976Z,1.92
2022-09-14T18:51:50.675Z,2.38
2022-09-14T18:54:26.718Z,1.83
2022-09-14T18:56:56.342Z,2.13
2022-09-14T18:59:25.011Z,2.30
2022-09-14T19:01:53.556Z,2.05
2022-09-14T19:04:22.224Z,2.05
2022-09-14T19:06:50.834Z,2.22
2022-09-14T19:09:20.823Z,1.83
2022-09-14T19:11:49.506Z,2.00
2022-09-14T19:14:21.474Z,2.20
2022-09-14T19:16:51.925Z,1.90
2022-09-14T19:19:20.780Z,2.40
2022-09-14T19:21:49.287Z,2.65
2022-09-14T19:24:18.782Z,2.13
2022-09-14T19:26:51.082Z,2.42
2022-09-14T19:29:21.912Z,2.17
2022-09-14T19:31:52.079Z,1.88
2022-09-14T19:34:21.436Z,1.90
2022-09-14T19:36:50.294Z,1.80
2022-09-14T19:39:19.179Z,1.85
2022-09-14T19:41:49.289Z,1.80
2022-09-14T19:44:18.267Z,1.85
2022-09-14T19:46:47.026Z,2.50
2022-09-14T19:49:17.399Z,1.75
2022-09-14T19:51:46.628Z,2.17
2022-09-14T19:54:15.579Z,1.88
2022-09-14T19:56:44.956Z,1.83
2022-09-14T19:59:15.766Z,2.10
2022-09-14T20:01:44.577Z,2.15
2022-09-14T20:04:13.474Z,2.35
2022-09-14T20:06:45.194Z,2.30
2022-09-14T20:09:15.979Z,2.03
2022-09-14T20:11:45.868Z,1.85
2022-09-14T20:14:18.093Z,1.75
2022-09-14T20:16:48.787Z,1.70
2022-09-14T20:19:22.746Z,2.35
2022-09-14T20:21:53.176Z,2.33
2022-09-14T20:24:26.049Z,1.58
2022-09-14T20:26:56.302Z,1.80
2022-09-14T20:29:29.261Z,2.30
2022-09-14T20:31:57.840Z,1.70
2022-09-14T20:34:26.428Z,1.73
2022-09-14T20:36:55.413Z,2.10
2022-09-14T20:39:25.106Z,2.22
2022-09-14T20:41:53.919Z,2.03
2022-09-14T20:44:23.301Z,2.10
2022-09-14T20:46:53.283Z,2.10
2022-09-14T20:49:22.357Z,2.05
2022-09-14T20:51:52.780Z,1.98
2022-09-14T20:54:21.545Z,2.25
2022-09-14T20:56:49.757Z,2.30
2022-09-14T20:59:19.634Z,2.38
2022-09-14T21:01:49.589Z,2.03
2022-09-14T21:04:21.632Z,2.20
2022-09-14T21:06:52.652Z,2.20
2022-09-14T21:09:22.132Z,2.40
2022-09-14T21:11:50.341Z,2.40
2022-09-14T21:14:20.377Z,2.40
2022-09-14T21:16:50.791Z,2.40
2022-09-14T21:19:23.144Z,1.92
2022-09-14T21:21:52.023Z,2.17
2022-09-14T21:24:22.983Z,2.20
2022-09-14T21:26:51.371Z,1.65
2022-09-14T21:29:23.864Z,1.95
2022-09-14T21:31:52.884Z,1.90
2022-09-14T21:34:22.671Z,2.30
2022-09-14T21:36:52.099Z,2.10
2022-09-14T21:39:23.332Z,2.58
2022-09-14T21:41:57.976Z,2.53
2022-09-14T21:44:30.012Z,1.77
2022-09-14T21:46:58.080Z,2.03
2022-09-14T21:49:27.718Z,2.25
2022-09-14T21:51:55.848Z,2.20
2022-09-14T21:54:24.226Z,2.50
2022-09-14T21:56:54.196Z,2.25
2022-09-14T21:59:23.822Z,2.33
2022-09-14T22:01:52.569Z,2.28
2022-09-14T22:04:22.453Z,2.15
2022-09-14T22:06:53.415Z,2.28
2022-09-14T22:09:23.948Z,2.25
2022-09-14T22:11:52.348Z,2.25
2022-09-14T22:14:22.456Z,2.03
2022-09-14T22:16:51.089Z,1.88
2022-09-14T22:19:21.382Z,2.17
2022-09-14T22:21:51.429Z,2.92
2022-09-14T22:24:22.062Z,2.30
2022-09-14T22:26:51.377Z,2.28
2022-09-14T22:29:20.425Z,2.30
2022-09-14T22:31:49.130Z,2.70
2022-09-14T22:34:18.180Z,2.88
2022-09-14T22:36:46.470Z,2.90
2022-09-14T22:39:16.081Z,2.20
2022-09-14T22:41:44.289Z,2.95
2022-09-14T22:44:13.446Z,2.78
2022-09-14T22:46:41.831Z,2.40
2022-09-14T22:49:10.509Z,2.97
2022-09-14T22:51:38.695Z,2.80
2022-09-14T22:54:07.382Z,2.67
2022-09-14T22:56:39.499Z,2.30
2022-09-14T22:59:10.189Z,2.28
2022-09-14T23:01:40.739Z,2.30
2022-09-14T23:04:11.112Z,2.60
2022-09-14T23:06:41.328Z,2.33
2022-09-14T23:09:11.798Z,3.13
2022-09-14T23:11:42.355Z,2.70
2022-09-14T23:14:10.581Z,3.00
2022-09-14T23:16:38.774Z,2.88
2022-09-14T23:19:07.992Z,2.67
2022-09-14T23:21:36.853Z,2.85
2022-09-14T23:24:07.484Z,3.08
2022-09-14T23:26:35.855Z,2.47
2022-09-14T23:29:09.982Z,2.78
2022-09-14T23:31:38.072Z,2.83
2022-09-14T23:34:06.956Z,2.70
2022-09-14T23:36:35.894Z,2.58
2022-09-14T23:39:04.909Z,2.30
2022-09-14T23:41:33.149Z,2.47
2022-09-14T23:44:02.028Z,2.33
2022-09-14T23:46:31.629Z,2.15
2022-09-14T23:48:59.951Z,2.25
2022-09-14T23:51:28.073Z,2.20
2022-09-14T23:53:56.388Z,2.05
2022-09-14T23:56:24.722Z,2.10
2022-09-14T23:58:52.819Z,1.90
